createdAt,value
2023-03-03T00:00:36.317Z,8.73
2023-03-03T00:02:40.696Z,8.37
2023-03-03T00:04:42.398Z,9.13
2023-03-03T00:06:45.828Z,9.77
2023-03-03T00:08:47.632Z,8.90
2023-03-03T00:10:49.480Z,8.23
2023-03-03T00:12:53.773Z,9.07
2023-03-03T00:14:56.404Z,8.30
2023-03-03T00:17:14.418Z,10.43
2023-03-03T00:19:19.171Z,7.83
2023-03-03T00:21:31.326Z,8.67
2023-03-03T00:23:39.170Z,8.20
2023-03-03T00:25:45.011Z,10.40
2023-03-03T00:27:50.133Z,7.83
2023-03-03T00:29:56.682Z,9.17
2023-03-03T00:32:24.216Z,8.70
2023-03-03T00:34:28.191Z,9.30
2023-03-03T00:36:41.071Z,9.13
2023-03-03T00:38:43.544Z,9.17
2023-03-03T00:40:46.511Z,10.63
2023-03-03T00:42:54.584Z,8.73
2023-03-03T00:44:57.947Z,8.13
2023-03-03T00:47:13.741Z,8.50
2023-03-03T00:49:24.729Z,9.30
2023-03-03T00:51:31.453Z,8.47
2023-03-03T00:53:33.287Z,9.23
2023-03-03T00:55:35.971Z,7.87
2023-03-03T00:57:37.644Z,9.10
2023-03-03T00:59:42.114Z,10.13
2023-03-03T01:01:44.206Z,7.40
2023-03-03T01:03:46.528Z,8.07
2023-03-03T01:05:49.695Z,11.13
2023-03-03T01:07:51.458Z,8.10
2023-03-03T01:09:53.265Z,9.83
2023-03-03T01:11:56.299Z,7.67
2023-03-03T01:13:58.122Z,8.27
2023-03-03T01:16:05.714Z,8.50
2023-03-03T01:18:09.215Z,9.43
2023-03-03T01:20:13.441Z,8.50
2023-03-03T01:22:15.155Z,8.10
2023-03-03T01:24:16.976Z,7.93
2023-03-03T01:26:18.779Z,7.67
2023-03-03T01:28:20.942Z,10.67
2023-03-03T01:30:23.003Z,9.53
2023-03-03T01:32:25.701Z,8.47
2023-03-03T01:34:27.460Z,7.60
2023-03-03T01:36:29.639Z,7.40
2023-03-03T01:38:36.074Z,7.47
2023-03-03T01:40:40.413Z,9.70
2023-03-03T01:42:43.655Z,7.10
2023-03-03T01:44:48.391Z,8.03
2023-03-03T01:47:24.749Z,8.87
2023-03-03T01:49:36.167Z,7.90
2023-03-03T01:51:48.969Z,9.60
2023-03-03T01:54:01.336Z,8.97
2023-03-03T01:56:05.959Z,7.97
2023-03-03T01:58:25.921Z,8.97
2023-03-03T02:00:29.212Z,8.33
2023-03-03T02:02:32.099Z,8.67
2023-03-03T02:04:35.261Z,11.40
2023-03-03T02:06:40.817Z,8.87
2023-03-03T02:09:07.968Z,8.93
2023-03-03T02:11:11.312Z,7.63
2023-03-03T02:13:13.903Z,8.47
2023-03-03T02:15:28.672Z,8.87
2023-03-03T02:17:30.344Z,7.13
2023-03-03T02:19:55.987Z,8.57
2023-03-03T02:21:59.785Z,8.50
2023-03-03T02:24:16.293Z,7.87
2023-03-03T02:26:24.708Z,8.77
2023-03-03T02:28:34.527Z,7.90
2023-03-03T02:30:40.277Z,7.47
2023-03-03T02:32:43.715Z,8.87
2023-03-03T02:34:51.137Z,7.80
2023-03-03T02:36:52.850Z,9.47
2023-03-03T02:39:16.245Z,8.10
2023-03-03T02:41:23.326Z,7.27
2023-03-03T02:43:29.236Z,8.27
2023-03-03T02:45:31.108Z,8.50
2023-03-03T02:47:32.836Z,8.23
2023-03-03T02:49:37.453Z,9.83
2023-03-03T02:51:40.869Z,8.00
2023-03-03T02:53:45.508Z,8.43
2023-03-03T02:55:47.396Z,8.23
2023-03-03T02:57:50.092Z,8.43
2023-03-03T02:59:51.752Z,7.53
2023-03-03T03:01:55.651Z,10.13
2023-03-03T03:03:59.272Z,7.67
2023-03-03T03:06:04.861Z,7.90
2023-03-03T03:08:09.176Z,9.43
2023-03-03T03:10:11.431Z,9.30
2023-03-03T03:12:15.912Z,7.73
2023-03-03T03:14:17.790Z,7.70
2023-03-03T03:16:19.911Z,10.17
2023-03-03T03:18:22.055Z,7.90
2023-03-03T03:20:24.693Z,9.57
2023-03-03T03:22:27.304Z,9.43
2023-03-03T03:24:31.456Z,10.53
2023-03-03T03:26:37.898Z,10.80
2023-03-03T03:28:42.940Z,9.90
2023-03-03T03:30:45.679Z,11.13
2023-03-03T03:32:47.800Z,10.53
2023-03-03T03:34:49.960Z,11.67
2023-03-03T03:36:51.681Z,10.20
2023-03-03T03:38:54.474Z,9.03
2023-03-03T03:40:57.990Z,9.97
2023-03-03T03:42:59.745Z,8.93
2023-03-03T03:45:01.539Z,8.37
2023-03-03T03:47:03.812Z,7.77
2023-03-03T03:49:05.726Z,10.70
2023-03-03T03:51:12.008Z,8.43
2023-03-03T03:53:16.480Z,10.57
2023-03-03T03:55:18.553Z,8.53
2023-03-03T03:57:20.255Z,9.60
2023-03-03T03:59:22.346Z,8.53
2023-03-03T04:01:25.222Z,11.13
2023-03-03T04:03:29.613Z,9.10
2023-03-03T04:05:31.412Z,10.13
2023-03-03T04:07:33.985Z,9.40
2023-03-03T04:09:36.391Z,9.00
2023-03-03T04:11:38.152Z,8.90
2023-03-03T04:13:42.384Z,9.37
2023-03-03T04:15:45.781Z,9.90
2023-03-03T04:17:47.552Z,8.70
2023-03-03T04:19:51.678Z,9.37
2023-03-03T04:21:53.974Z,9.93
2023-03-03T04:23:55.711Z,8.30
2023-03-03T04:25:57.458Z,9.70
2023-03-03T04:28:03.546Z,9.90
2023-03-03T04:30:09.045Z,9.00
2023-03-03T04:32:13.621Z,10.77
2023-03-03T04:34:15.386Z,9.60
2023-03-03T04:36:18.383Z,10.23
2023-03-03T04:38:20.293Z,9.43
2023-03-03T04:40:23.311Z,9.53
2023-03-03T04:42:28.075Z,10.93
2023-03-03T04:44:30.085Z,9.53
2023-03-03T04:46:31.931Z,11.23
2023-03-03T04:48:36.222Z,11.30
2023-03-03T04:50:43.897Z,10.43
2023-03-03T04:52:45.620Z,12.30
2023-03-03T04:54:48.300Z,13.30
2023-03-03T04:56:50.088Z,10.03
2023-03-03T04:58:52.495Z,10.87
2023-03-03T05:00:56.102Z,10.50
2023-03-03T05:02:59.903Z,11.37
2023-03-03T05:05:01.759Z,10.37
2023-03-03T05:07:06.029Z,9.70
2023-03-03T05:09:07.746Z,11.00
2023-03-03T05:11:09.496Z,10.13
2023-03-03T05:13:11.437Z,9.97
2023-03-03T05:15:13.284Z,10.60
2023-03-03T05:17:17.345Z,9.23
2023-03-03T05:19:19.177Z,10.43
2023-03-03T05:21:21.704Z,10.30
2023-03-03T05:23:23.522Z,8.87
2023-03-03T05:25:25.443Z,11.10
2023-03-03T05:27:28.937Z,9.57
2023-03-03T05:29:31.878Z,10.70
2023-03-03T05:31:34.070Z,10.60
2023-03-03T05:33:35.928Z,11.27
2023-03-03T05:35:37.652Z,10.80
2023-03-03T05:37:44.396Z,11.17
2023-03-03T05:39:48.466Z,11.83
2023-03-03T05:41:50.207Z,10.90
2023-03-03T05:43:54.486Z,10.00
2023-03-03T05:45:57.261Z,9.50
2023-03-03T05:48:00.227Z,11.53
2023-03-03T05:50:03.296Z,11.47
2023-03-03T05:52:06.570Z,11.57
2023-03-03T05:54:08.417Z,11.90
2023-03-03T05:56:12.457Z,12.40
2023-03-03T05:58:14.253Z,13.00
2023-03-03T06:00:16.974Z,10.93
2023-03-03T06:02:18.747Z,13.27
2023-03-03T06:04:20.565Z,13.13
2023-03-03T06:06:22.278Z,13.73
2023-03-03T06:08:25.589Z,12.53
2023-03-03T06:10:30.315Z,11.83
2023-03-03T06:12:37.952Z,11.33
2023-03-03T06:14:39.802Z,12.27
2023-03-03T06:16:41.602Z,13.47
2023-03-03T06:18:44.521Z,16.73
2023-03-03T06:20:50.683Z,14.33
2023-03-03T06:22:52.446Z,14.77
2023-03-03T06:24:54.258Z,15.07
2023-03-03T06:26:59.552Z,13.87
2023-03-03T06:29:01.521Z,14.30
2023-03-03T06:31:03.409Z,14.57
2023-03-03T06:33:05.428Z,16.00
2023-03-03T06:35:07.592Z,16.93
2023-03-03T06:37:09.246Z,16.53
2023-03-03T06:39:11.099Z,15.37
2023-03-03T06:41:13.156Z,14.90
2023-03-03T06:43:15.153Z,14.53
2023-03-03T06:45:17.001Z,19.13
2023-03-03T06:47:18.747Z,15.20
2023-03-03T06:49:20.428Z,14.23
2023-03-03T06:51:32.397Z,14.33
2023-03-03T06:53:34.847Z,15.93
2023-03-03T06:55:39.252Z,17.47
2023-03-03T06:57:43.208Z,16.73
2023-03-03T06:59:47.239Z,17.17
2023-03-03T07:01:50.454Z,19.50
2023-03-03T07:03:52.255Z,20.37
2023-03-03T07:05:54.123Z,20.53
2023-03-03T07:07:57.385Z,20.60
2023-03-03T07:10:00.384Z,21.77
2023-03-03T07:12:32.280Z,22.90
2023-03-03T07:14:44.773Z,21.57
2023-03-03T07:16:47.094Z,22.23
2023-03-03T07:18:53.251Z,20.43
2023-03-03T07:20:54.935Z,21.67
2023-03-03T07:22:57.102Z,22.70
2023-03-03T07:25:04.562Z,23.47
2023-03-03T07:27:06.265Z,23.57
2023-03-03T07:29:25.343Z,21.43
2023-03-03T07:31:31.591Z,20.90
2023-03-03T07:33:45.635Z,22.17
2023-03-03T07:35:47.623Z,24.23
2023-03-03T07:37:49.478Z,22.27
2023-03-03T07:39:51.545Z,22.87
2023-03-03T07:41:59.698Z,25.47
2023-03-03T07:44:06.955Z,26.33
2023-03-03T07:46:11.535Z,22.47
2023-03-03T07:48:13.244Z,24.17
2023-03-03T07:50:23.158Z,25.37
2023-03-03T07:52:40.457Z,28.77
2023-03-03T07:54:45.781Z,27.20
2023-03-03T07:56:48.100Z,25.20
2023-03-03T07:58:49.803Z,28.43
2023-03-03T08:01:19.747Z,27.37
2023-03-03T08:03:21.510Z,25.97
2023-03-03T08:05:40.548Z,29.17
2023-03-03T08:07:42.276Z,26.20
2023-03-03T08:09:53.843Z,30.23
2023-03-03T08:11:58.031Z,24.87
2023-03-03T08:13:59.860Z,28.20
2023-03-03T08:16:24.439Z,30.63
2023-03-03T08:18:31.875Z,26.60
2023-03-03T08:20:48.283Z,27.90
2023-03-03T08:22:49.977Z,28.07
2023-03-03T08:24:51.943Z,30.23
2023-03-03T08:26:58.404Z,29.63
2023-03-03T08:29:01.193Z,26.60
2023-03-03T08:31:16.409Z,31.13
2023-03-03T08:33:21.957Z,26.80
2023-03-03T08:35:23.783Z,28.60
2023-03-03T08:37:25.504Z,29.30
2023-03-03T08:39:27.238Z,25.40
2023-03-03T08:41:31.514Z,25.77
2023-03-03T08:43:33.387Z,30.30
2023-03-03T08:45:35.721Z,29.63
2023-03-03T08:47:38.228Z,25.47
2023-03-03T08:49:40.144Z,27.50
2023-03-03T08:51:42.279Z,29.63
2023-03-03T08:53:44.099Z,27.10
2023-03-03T08:55:46.456Z,25.40
2023-03-03T08:57:48.259Z,28.27
2023-03-03T08:59:50.012Z,27.10
2023-03-03T09:01:51.856Z,27.10
2023-03-03T09:03:53.662Z,28.73
2023-03-03T09:05:55.380Z,27.90
2023-03-03T09:07:57.566Z,28.77
2023-03-03T09:10:02.188Z,27.97
2023-03-03T09:12:18.793Z,27.10
2023-03-03T09:14:21.172Z,26.43
2023-03-03T09:16:22.983Z,27.90
2023-03-03T09:18:35.602Z,25.83
2023-03-03T09:20:44.694Z,25.77
2023-03-03T09:22:46.516Z,26.97
2023-03-03T09:24:50.032Z,26.10
2023-03-03T09:26:53.141Z,25.40
2023-03-03T09:29:09.594Z,28.13
2023-03-03T09:31:25.010Z,29.37
2023-03-03T09:33:40.496Z,25.60
2023-03-03T09:35:42.527Z,25.47
2023-03-03T09:37:51.448Z,28.90
2023-03-03T09:39:55.615Z,26.73
2023-03-03T09:42:24.769Z,27.90
2023-03-03T09:44:52.742Z,26.30
2023-03-03T09:47:11.941Z,25.30
2023-03-03T09:49:49.372Z,25.03
2023-03-03T09:52:21.997Z,26.60
2023-03-03T09:54:44.761Z,24.80
2023-03-03T09:57:14.482Z,28.83
2023-03-03T09:59:22.479Z,27.43
2023-03-03T10:01:47.725Z,27.87
2023-03-03T10:04:17.163Z,27.40
2023-03-03T10:06:31.531Z,27.57
2023-03-03T10:08:52.205Z,27.73
2023-03-03T10:10:56.832Z,30.30
2023-03-03T10:13:12.252Z,27.23
2023-03-03T10:15:22.004Z,28.90
2023-03-03T10:17:52.387Z,27.47
2023-03-03T10:20:03.508Z,28.73
2023-03-03T10:22:18.630Z,29.87
2023-03-03T10:24:23.306Z,30.77
2023-03-03T10:26:44.947Z,32.23
2023-03-03T10:28:56.948Z,26.63
2023-03-03T10:31:08.045Z,28.47
2023-03-03T10:33:38.180Z,28.07
2023-03-03T10:36:11.769Z,29.17
2023-03-03T10:38:23.006Z,30.00
2023-03-03T10:41:12.375Z,28.40
2023-03-03T10:43:34.368Z,29.13
2023-03-03T10:46:01.227Z,28.90
2023-03-03T10:48:21.106Z,27.97
2023-03-03T10:50:53.448Z,28.40
2023-03-03T10:53:16.996Z,27.70
2023-03-03T10:55:28.924Z,29.63
2023-03-03T10:57:40.425Z,30.73
2023-03-03T11:00:15.698Z,30.50
2023-03-03T11:02:48.573Z,32.37
2023-03-03T11:05:17.025Z,32.10
2023-03-03T11:07:27.533Z,28.63
2023-03-03T11:09:33.833Z,27.33
2023-03-03T11:11:54.240Z,30.50
2023-03-03T11:14:17.127Z,30.50
2023-03-03T11:16:33.968Z,29.83
2023-03-03T11:18:49.484Z,30.37
2023-03-03T11:21:28.048Z,31.07
2023-03-03T11:23:55.249Z,29.67
2023-03-03T11:26:18.606Z,29.90
2023-03-03T11:28:44.391Z,26.57
2023-03-03T11:31:16.495Z,29.83
2023-03-03T11:33:27.826Z,27.43
2023-03-03T11:35:44.083Z,29.57
2023-03-03T11:37:58.972Z,30.23
2023-03-03T11:40:10.761Z,27.67
2023-03-03T11:42:28.449Z,27.63
2023-03-03T11:44:41.934Z,26.03
2023-03-03T11:46:49.567Z,30.73
2023-03-03T11:49:00.512Z,27.40
2023-03-03T11:51:14.302Z,25.60
2023-03-03T11:53:24.979Z,29.57
2023-03-03T11:55:39.465Z,27.97
2023-03-03T11:58:01.005Z,28.33
2023-03-03T12:00:46.312Z,29.60
2023-03-03T12:03:15.317Z,27.27
2023-03-03T12:05:31.096Z,27.97
2023-03-03T12:08:05.060Z,26.23
2023-03-03T12:10:31.652Z,28.60
2023-03-03T12:13:04.610Z,27.43
2023-03-03T12:15:35.797Z,26.90
2023-03-03T12:17:57.001Z,24.77
2023-03-03T12:20:17.971Z,27.37
2023-03-03T12:23:07.277Z,26.13
2023-03-03T12:25:37.301Z,24.87
2023-03-03T12:27:51.684Z,26.50
2023-03-03T12:30:26.772Z,26.07
2023-03-03T12:32:57.936Z,21.37
2023-03-03T12:35:17.804Z,20.40
2023-03-03T12:37:54.693Z,21.27
2023-03-03T12:40:09.258Z,18.43
2023-03-03T12:42:13.650Z,17.33
2023-03-03T12:44:33.965Z,17.17
2023-03-03T12:46:42.871Z,16.60
2023-03-03T12:48:50.378Z,15.23
2023-03-03T12:51:14.361Z,18.30
2023-03-03T12:53:30.479Z,17.00
2023-03-03T12:56:01.454Z,16.50
2023-03-03T12:58:45.019Z,16.03
2023-03-03T13:01:06.233Z,14.47
2023-03-03T13:03:46.271Z,14.80
2023-03-03T13:06:24.601Z,19.17
2023-03-03T13:08:54.888Z,18.73
2023-03-03T13:11:11.496Z,18.10
2023-03-03T13:13:31.899Z,16.90
2023-03-03T13:16:06.613Z,15.47
2023-03-03T13:18:34.487Z,17.83
2023-03-03T13:20:48.633Z,19.37
2023-03-03T13:22:57.177Z,19.33
2023-03-03T13:25:11.428Z,19.90
2023-03-03T13:27:27.503Z,17.53
2023-03-03T13:29:37.428Z,20.60
2023-03-03T13:31:54.422Z,20.43
2023-03-03T13:33:58.868Z,19.83
2023-03-03T13:36:08.866Z,17.73
2023-03-03T13:38:14.564Z,21.10
2023-03-03T13:40:31.316Z,21.87
2023-03-03T13:42:42.334Z,17.23
2023-03-03T13:44:49.179Z,17.87
2023-03-03T13:47:02.374Z,17.50
2023-03-03T13:49:20.381Z,17.77
2023-03-03T13:51:55.039Z,18.60
2023-03-03T13:54:38.655Z,20.20
2023-03-03T13:57:12.716Z,19.67
2023-03-03T13:59:45.289Z,19.13
2023-03-03T14:02:08.965Z,17.03
2023-03-03T14:04:23.455Z,20.10
2023-03-03T14:06:29.782Z,22.93
2023-03-03T14:08:55.535Z,23.00
2023-03-03T14:11:22.352Z,22.80
2023-03-03T14:13:27.045Z,22.03
2023-03-03T14:15:31.762Z,20.50
2023-03-03T14:18:03.177Z,20.80
2023-03-03T14:20:24.430Z,20.10
2023-03-03T14:22:53.898Z,21.93
2023-03-03T14:25:12.180Z,21.63
2023-03-03T14:27:26.017Z,21.37
2023-03-03T14:29:27.957Z,17.80
2023-03-03T14:31:39.641Z,20.07
2023-03-03T14:34:14.159Z,17.73
2023-03-03T14:36:29.239Z,17.33
2023-03-03T14:38:31.899Z,16.20
2023-03-03T14:40:38.753Z,19.50
2023-03-03T14:42:51.315Z,17.90
2023-03-03T14:44:56.755Z,17.67
2023-03-03T14:47:11.421Z,17.20
2023-03-03T14:49:32.932Z,16.43
2023-03-03T14:51:46.891Z,16.10
2023-03-03T14:53:49.984Z,15.83
2023-03-03T14:55:54.208Z,17.10
2023-03-03T14:57:56.873Z,14.87
2023-03-03T15:00:14.747Z,16.33
2023-03-03T15:02:16.491Z,15.67
2023-03-03T15:04:21.214Z,15.77
2023-03-03T15:06:29.200Z,15.47
2023-03-03T15:08:35.004Z,15.53
2023-03-03T15:10:41.017Z,15.03
2023-03-03T15:12:45.216Z,14.57
2023-03-03T15:14:51.523Z,14.50
2023-03-03T15:16:56.611Z,15.37
2023-03-03T15:19:11.561Z,13.30
2023-03-03T15:21:18.869Z,12.33
2023-03-03T15:23:30.579Z,11.07
2023-03-03T15:25:55.040Z,11.97
2023-03-03T15:28:13.740Z,12.10
2023-03-03T15:30:32.934Z,12.90
2023-03-03T15:32:52.155Z,11.70
2023-03-03T15:35:21.077Z,13.17
2023-03-03T15:37:48.841Z,12.57
2023-03-03T15:40:19.207Z,13.60
2023-03-03T15:42:48.428Z,12.87
2023-03-03T15:45:05.406Z,15.50
2023-03-03T15:47:28.736Z,16.53
2023-03-03T15:49:57.320Z,17.70
2023-03-03T15:52:33.087Z,20.63
2023-03-03T15:54:53.500Z,19.33
2023-03-03T15:57:01.078Z,20.30
2023-03-03T15:59:26.880Z,20.93
2023-03-03T16:02:10.444Z,19.73
2023-03-03T16:04:16.730Z,20.57
2023-03-03T16:06:37.296Z,21.27
2023-03-03T16:09:15.590Z,22.30
2023-03-03T16:11:32.091Z,23.03
2023-03-03T16:14:04.145Z,21.60
2023-03-03T16:16:29.509Z,22.20
2023-03-03T16:18:58.544Z,23.43
2023-03-03T16:21:31.567Z,22.57
2023-03-03T16:23:48.486Z,21.67
2023-03-03T16:26:23.880Z,23.07
2023-03-03T16:28:56.066Z,24.50
2023-03-03T16:30:57.922Z,22.70
2023-03-03T16:33:11.501Z,23.03
2023-03-03T16:35:26.092Z,29.27
2023-03-03T16:37:34.682Z,24.67
2023-03-03T16:39:51.008Z,24.17
2023-03-03T16:42:18.168Z,25.47
2023-03-03T16:44:31.826Z,25.90
2023-03-03T16:46:44.703Z,27.50
2023-03-03T16:48:58.811Z,25.83
2023-03-03T16:51:29.423Z,23.97
2023-03-03T16:54:02.626Z,24.77
2023-03-03T16:56:13.440Z,25.63
2023-03-03T16:58:39.617Z,28.90
2023-03-03T17:00:52.328Z,27.50
2023-03-03T17:03:05.372Z,29.13
2023-03-03T17:05:56.351Z,26.40
2023-03-03T17:08:12.064Z,28.27
2023-03-03T17:10:16.704Z,27.43
2023-03-03T17:12:52.157Z,25.57
2023-03-03T17:15:38.039Z,27.83
2023-03-03T17:18:05.853Z,28.37
2023-03-03T17:20:43.461Z,26.87
2023-03-03T17:23:07.925Z,24.70
2023-03-03T17:25:30.047Z,28.63
2023-03-03T17:27:51.244Z,28.63
2023-03-03T17:30:02.353Z,29.17
2023-03-03T17:32:33.031Z,28.93
2023-03-03T17:35:07.693Z,31.07
2023-03-03T17:37:32.593Z,31.97
2023-03-03T17:40:03.694Z,31.30
2023-03-03T17:42:19.918Z,30.00
2023-03-03T17:44:49.792Z,29.13
2023-03-03T17:47:00.979Z,29.73
2023-03-03T17:49:46.771Z,33.53
2023-03-03T17:52:23.130Z,32.00
2023-03-03T17:54:52.661Z,32.73
2023-03-03T17:57:28.233Z,31.27
2023-03-03T17:59:55.990Z,32.50
2023-03-03T18:02:42.390Z,33.33
2023-03-03T18:05:00.983Z,32.67
2023-03-03T18:07:36.076Z,33.03
2023-03-03T18:09:45.408Z,34.33
2023-03-03T18:12:11.939Z,31.93
2023-03-03T18:14:38.290Z,31.17
2023-03-03T18:17:17.024Z,30.67
2023-03-03T18:19:58.455Z,32.00
2023-03-03T18:22:41.877Z,28.90
2023-03-03T18:24:51.774Z,34.03
2023-03-03T18:26:56.305Z,37.77
2023-03-03T18:29:21.759Z,36.27
2023-03-03T18:31:26.503Z,36.93
2023-03-03T18:33:59.032Z,37.53
2023-03-03T18:36:30.285Z,33.70
2023-03-03T18:38:36.472Z,36.83
2023-03-03T18:40:48.995Z,38.27
2023-03-03T18:42:53.828Z,40.73
2023-03-03T18:44:55.815Z,41.60
2023-03-03T18:46:58.846Z,40.67
2023-03-03T18:49:13.924Z,41.73
2023-03-03T18:51:45.711Z,45.53
2023-03-03T18:54:12.197Z,44.23
2023-03-03T18:56:46.866Z,46.53
2023-03-03T18:58:51.720Z,45.13
2023-03-03T19:01:03.378Z,46.53
2023-03-03T19:03:24.799Z,47.50
2023-03-03T19:05:28.916Z,47.70
2023-03-03T19:07:51.605Z,46.40
2023-03-03T19:10:02.547Z,49.53
2023-03-03T19:12:09.531Z,50.30
2023-03-03T19:14:27.511Z,44.73
2023-03-03T19:16:30.758Z,45.67
2023-03-03T19:18:55.448Z,48.20
2023-03-03T19:21:19.900Z,44.40
2023-03-03T19:23:31.316Z,45.07
2023-03-03T19:25:33.137Z,44.97
2023-03-03T19:28:15.793Z,44.73
2023-03-03T19:30:57.565Z,47.33
2023-03-03T19:33:26.215Z,42.60
2023-03-03T19:36:00.417Z,42.50
2023-03-03T19:38:50.059Z,44.93
2023-03-03T19:41:10.084Z,43.83
2023-03-03T19:43:20.629Z,45.27
2023-03-03T19:45:30.712Z,41.37
2023-03-03T19:47:46.476Z,43.20
2023-03-03T19:49:48.329Z,43.43
2023-03-03T19:52:04.969Z,44.90
2023-03-03T19:54:37.562Z,42.70
2023-03-03T19:56:46.764Z,45.33
2023-03-03T19:59:07.210Z,48.77
2023-03-03T20:01:19.386Z,44.23
2023-03-03T20:03:52.281Z,47.83
2023-03-03T20:06:16.804Z,41.40
2023-03-03T20:08:29.278Z,43.77
2023-03-03T20:10:47.332Z,40.67
2023-03-03T20:13:17.254Z,48.90
2023-03-03T20:15:53.305Z,46.47
2023-03-03T20:18:03.767Z,47.47
2023-03-03T20:20:20.448Z,50.40
2023-03-03T20:22:36.454Z,47.63
2023-03-03T20:24:50.137Z,50.10
2023-03-03T20:27:23.639Z,50.20
2023-03-03T20:29:44.382Z,50.00
2023-03-03T20:32:02.972Z,47.37
2023-03-03T20:34:19.763Z,48.60
2023-03-03T20:36:39.167Z,50.30
2023-03-03T20:38:53.251Z,49.80
2023-03-03T20:41:22.686Z,51.10
2023-03-03T20:43:56.466Z,54.27
2023-03-03T20:46:13.316Z,58.17
2023-03-03T20:48:47.745Z,50.83
2023-03-03T20:51:01.090Z,50.33
2023-03-03T20:53:26.514Z,55.73
2023-03-03T20:56:04.817Z,54.10
2023-03-03T20:58:20.959Z,50.17
2023-03-03T21:00:34.773Z,51.83
2023-03-03T21:02:53.841Z,53.17
2023-03-03T21:05:17.638Z,54.77
2023-03-03T21:07:24.829Z,52.63
2023-03-03T21:09:39.371Z,55.87
2023-03-03T21:11:43.915Z,53.93
2023-03-03T21:13:53.330Z,57.73
2023-03-03T21:16:01.907Z,58.83
2023-03-03T21:18:21.186Z,58.13
2023-03-03T21:20:28.658Z,54.70
2023-03-03T21:22:30.331Z,55.27
2023-03-03T21:24:56.475Z,57.47
2023-03-03T21:27:00.931Z,58.43
2023-03-03T21:29:03.694Z,57.20
2023-03-03T21:31:15.671Z,62.57
2023-03-03T21:33:42.220Z,57.77
2023-03-03T21:36:02.191Z,62.60
2023-03-03T21:38:04.287Z,63.77
2023-03-03T21:40:23.337Z,67.30
2023-03-03T21:42:42.077Z,61.47
2023-03-03T21:44:51.551Z,68.70
2023-03-03T21:46:58.170Z,64.47
2023-03-03T21:49:00.295Z,69.00
2023-03-03T21:51:04.849Z,72.00
2023-03-03T21:53:08.974Z,68.17
2023-03-03T21:55:10.833Z,73.07
2023-03-03T21:57:12.828Z,68.03
2023-03-03T21:59:14.532Z,72.93
2023-03-03T22:01:16.551Z,69.40
2023-03-03T22:03:21.185Z,70.47
2023-03-03T22:05:23.383Z,76.30
2023-03-03T22:07:25.125Z,70.17
2023-03-03T22:09:26.990Z,72.13
2023-03-03T22:11:28.691Z,66.63
2023-03-03T22:13:30.383Z,66.67
2023-03-03T22:15:33.755Z,66.40
2023-03-03T22:17:37.633Z,64.87
2023-03-03T22:19:39.481Z,69.53
2023-03-03T22:21:41.276Z,62.30
2023-03-03T22:23:43.055Z,62.57
2023-03-03T22:25:44.949Z,63.90
2023-03-03T22:27:56.964Z,67.17
2023-03-03T22:30:01.804Z,65.00
2023-03-03T22:32:03.515Z,62.97
2023-03-03T22:34:05.651Z,65.47
2023-03-03T22:36:08.685Z,64.83
2023-03-03T22:38:10.376Z,70.30
2023-03-03T22:40:12.375Z,65.67
2023-03-03T22:42:14.135Z,70.57
2023-03-03T22:44:15.859Z,66.70
2023-03-03T22:46:17.789Z,62.90
2023-03-03T22:48:19.519Z,66.50
2023-03-03T22:50:24.424Z,64.83
2023-03-03T22:52:26.113Z,64.30
2023-03-03T22:54:30.423Z,66.17
2023-03-03T22:56:32.143Z,64.37
2023-03-03T22:58:33.790Z,63.23
2023-03-03T23:00:38.692Z,64.87
2023-03-03T23:02:40.623Z,65.50
2023-03-03T23:04:42.328Z,70.07
2023-03-03T23:06:44.969Z,70.17
2023-03-03T23:08:49.118Z,78.37
2023-03-03T23:10:50.928Z,72.53
2023-03-03T23:12:52.670Z,73.30
2023-03-03T23:14:56.787Z,77.70
2023-03-03T23:17:00.769Z,82.07
2023-03-03T23:19:05.348Z,73.50
2023-03-03T23:21:07.048Z,71.57
2023-03-03T23:23:08.778Z,72.00
2023-03-03T23:25:11.737Z,74.07
2023-03-03T23:27:13.530Z,74.80
2023-03-03T23:29:15.358Z,67.80
2023-03-03T23:31:17.134Z,66.27
2023-03-03T23:33:21.080Z,72.03
2023-03-03T23:35:22.918Z,77.33
2023-03-03T23:37:24.702Z,74.07
2023-03-03T23:39:26.398Z,72.43
2023-03-03T23:41:28.230Z,77.60
2023-03-03T23:43:29.966Z,80.20
2023-03-03T23:45:31.830Z,77.27
2023-03-03T23:47:33.711Z,75.77
2023-03-03T23:49:35.901Z,80.97
2023-03-03T23:51:37.735Z,68.20
2023-03-03T23:53:39.550Z,75.07
2023-03-03T23:55:41.425Z,74.27
2023-03-03T23:57:43.184Z,71.37
2023-03-03T23:59:44.907Z,73.17
